| time (UTC) | temp C | wind direction | speed KPH | gust KPH | rain 1hr cm | rain 24hr cm | rain mn cm | humidity % | barometer mb |
| 20260504130435 | 6 | 303 | 0.0 | 0.0 | 0.00 | 0.00 | 0.00 | 72 | 1147.6 |
| 20260504110322 | 6 | 323 | 0.0 | 0.0 | 0.00 | 0.00 | 0.00 | 69 | 1147.6 |
| 20260504100240 | 6 | 2 | 0.0 | 0.0 | 0.00 | 0.00 | 0.00 | 69 | 1147.8 |
| 20260504081633 | 8 | 46 | 0.0 | 1.6 | 0.00 | 0.00 | 0.00 | 60 | 1147.0 |
| 20260504081130 | 8 | 23 | 0.0 | 1.6 | 0.00 | 0.00 | 0.00 | 59 | 1147.0 |
| 20260504080626 | 8 | 23 | 0.0 | 0.0 | 0.00 | 0.00 | 0.00 | 58 | 1146.6 |
| 20260504080123 | 8 | 65 | 0.0 | 0.0 | 0.00 | 0.00 | 0.00 | 58 | 1146.7 |
| 20260504050439 | 12 | 37 | 0.0 | 1.6 | 0.00 | 0.00 | 0.00 | 40 | 1142.5 |
| 20260504045936 | 12 | 61 | 0.0 | 0.0 | 0.00 | 0.00 | 0.00 | 40 | 1142.4 |
| 20260504045432 | 12 | 17 | 1.6 | 4.8 | 0.00 | 0.00 | 0.00 | 39 | 1142.3 |
| 20260504044928 | 12 | 42 | 0.0 | 1.6 | 0.00 | 0.00 | 0.00 | 40 | 1142.1 |
| 20260504044426 | 13 | 50 | 0.0 | 4.8 | 0.00 | 0.00 | 0.00 | 42 | 1141.7 |
| 20260504043923 | 13 | 27 | 1.6 | 4.8 | 0.00 | 0.00 | 0.00 | 42 | 1141.6 |
| 20260504043420 | 13 | 26 | 4.8 | 8.0 | 0.00 | 0.00 | 0.00 | 41 | 1141.6 |
| 20260504042917 | 14 | 9 | 0.0 | 3.2 | 0.00 | 0.00 | 0.00 | 39 | 1141.7 |
| 20260504042414 | 15 | 37 | 1.6 | 3.2 | 0.00 | 0.00 | 0.00 | 38 | 1141.4 |
| 20260504041910 | 14 | 41 | 0.0 | 3.2 | 0.00 | 0.00 | 0.00 | 38 | 1141.4 |
| 20260504041406 | 14 | 36 | 0.0 | 1.6 | 0.00 | 0.00 | 0.00 | 38 | 1141.1 |
| 20260504040903 | 15 | 24 | 0.0 | 1.6 | 0.00 | 0.00 | 0.00 | 37 | 1141.0 |
| 20260504040400 | 14 | 12 | 0.0 | 1.6 | 0.00 | 0.00 | 0.00 | 37 | 1140.9 |
| 20260504035856 | 15 | 43 | 0.0 | 1.6 | 0.00 | 0.00 | 0.00 | 36 | 1141.0 |
| 20260504035354 | 15 | 19 | 0.0 | 1.6 | 0.00 | 0.00 | 0.00 | 36 | 1140.8 |
| 20260504034850 | 15 | 36 | 0.0 | 1.6 | 0.00 | 0.00 | 0.00 | 37 | 1140.8 |
| 20260504034348 | 15 | 59 | 0.0 | 0.0 | 0.00 | 0.00 | 0.00 | 37 | 1140.8 |
| 20260504033844 | 15 | 40 | 0.0 | 1.6 | 0.00 | 0.00 | 0.00 | 38 | 1140.5 |
| 20260504033343 | 15 | 33 | 0.0 | 3.2 | 0.00 | 0.00 | 0.00 | 37 | 1140.4 |
| 20260504032839 | 15 | 42 | 0.0 | 1.6 | 0.00 | 0.00 | 0.00 | 37 | 1140.2 |
| 20260504032336 | 15 | 31 | 0.0 | 1.6 | 0.00 | 0.00 | 0.00 | 37 | 1140.0 |
| 20260504031833 | 15 | 31 | 0.0 | 3.2 | 0.00 | 0.00 | 0.00 | 37 | 1140.1 |
| 20260504031330 | 15 | 39 | 0.0 | 1.6 | 0.00 | 0.00 | 0.00 | 38 | 1140.2 |
| 20260504030826 | 15 | 33 | 0.0 | 1.6 | 0.00 | 0.00 | 0.00 | 38 | 1139.9 |
| 20260504030324 | 15 | 35 | 0.0 | 3.2 | 0.00 | 0.00 | 0.00 | 38 | 1139.9 |
| 20260504025820 | 15 | 66 | 0.0 | 0.0 | 0.00 | 0.00 | 0.00 | 37 | 1139.6 |
| 20260504025317 | 16 | 56 | 0.0 | 1.6 | 0.00 | 0.00 | 0.00 | 37 | 1139.4 |
| 20260504024814 | 16 | 3 | 0.0 | 0.0 | 0.00 | 0.00 | 0.00 | 36 | 1139.6 |
| 20260504024310 | 16 | 64 | 0.0 | 0.0 | 0.00 | 0.00 | 0.00 | 33 | 1139.4 |
| 20260504023807 | 16 | 72 | 0.0 | 0.0 | 0.00 | 0.00 | 0.00 | 32 | 1139.4 |
| 20260504023303 | 16 | 44 | 0.0 | 1.6 | 0.00 | 0.00 | 0.00 | 32 | 1139.3 |
| 20260504022759 | 17 | 38 | 0.0 | 0.0 | 0.00 | 0.00 | 0.00 | 31 | 1139.4 |
| 20260504022256 | 17 | 13 | 0.0 | 0.0 | 0.00 | 0.00 | 0.00 | 29 | 1139.1 |
| 20260504021753 | 17 | 42 | 0.0 | 0.0 | 0.00 | 0.00 | 0.00 | 27 | 1139.2 |
| 20260504021250 | 18 | 356 | 0.0 | 0.0 | 0.00 | 0.00 | 0.00 | 26 | 1139.4 |
| 20260504020747 | 18 | 30 | 0.0 | 0.0 | 0.00 | 0.00 | 0.00 | 25 | 1139.2 |
| 20260504020243 | 18 | 355 | 0.0 | 0.0 | 0.00 | 0.00 | 0.00 | 25 | 1139.5 |
| 20260504015739 | 19 | 354 | 0.0 | 0.0 | 0.00 | 0.00 | 0.00 | 25 | 1139.3 |
| 20260504015236 | 19 | 356 | 0.0 | 0.0 | 0.00 | 0.00 | 0.00 | 25 | 1139.4 |
| 20260504014732 | 20 | 4 | 0.0 | 0.0 | 0.00 | 0.00 | 0.00 | 24 | 1139.3 |
| 20260504014229 | 20 | 39 | 0.0 | 0.0 | 0.00 | 0.00 | 0.00 | 24 | 1139.5 |
| 20260504013726 | 20 | 344 | 0.0 | 0.0 | 0.00 | 0.00 | 0.00 | 23 | 1139.4 |
| 20260504013224 | 20 | 359 | 0.0 | 1.6 | 0.00 | 0.00 | 0.00 | 23 | 1139.5 |
| 20260504012720 | 21 | 333 | 0.0 | 0.0 | 0.00 | 0.00 | 0.00 | 23 | 1139.5 |
| 20260504012218 | 21 | 352 | 0.0 | 1.6 | 0.00 | 0.00 | 0.00 | 22 | 1139.6 |
| 20260504011715 | 21 | 357 | 0.0 | 0.0 | 0.00 | 0.00 | 0.00 | 22 | 1139.3 |
| 20260504011212 | 21 | 357 | 0.0 | 0.0 | 0.00 | 0.00 | 0.00 | 22 | 1139.3 |
| 20260504010708 | 21 | 350 | 0.0 | 0.0 | 0.00 | 0.00 | 0.00 | 22 | 1139.3 |
| 20260504010203 | 21 | 22 | 0.0 | 1.6 | 0.00 | 0.00 | 0.00 | 22 | 1139.6 |
| 20260504005700 | 21 | 350 | 0.0 | 0.0 | 0.00 | 0.00 | 0.00 | 23 | 1139.4 |
| 20260504005157 | 21 | 6 | 0.0 | 3.2 | 0.00 | 0.00 | 0.00 | 22 | 1139.6 |
| 20260504004655 | 21 | 347 | 0.0 | 1.6 | 0.00 | 0.00 | 0.00 | 22 | 1139.8 |
| 20260504004152 | 22 | 332 | 0.0 | 1.6 | 0.00 | 0.00 | 0.00 | 22 | 1139.6 |
| 20260504003648 | 22 | 5 | 0.0 | 1.6 | 0.00 | 0.00 | 0.00 | 22 | 1139.8 |
| 20260504003145 | 22 | 355 | 0.0 | 1.6 | 0.00 | 0.00 | 0.00 | 22 | 1139.8 |
| 20260504002642 | 22 | 340 | 0.0 | 0.0 | 0.00 | 0.00 | 0.00 | 22 | 1140.0 |
| 20260504002139 | 22 | 343 | 0.0 | 3.2 | 0.00 | 0.00 | 0.00 | 22 | 1140.0 |
| 20260504001637 | 22 | 332 | 0.0 | 1.6 | 0.00 | 0.00 | 0.00 | 22 | 1140.1 |
| 20260504001133 | 22 | 330 | 0.0 | 4.8 | 0.00 | 0.00 | 0.00 | 21 | 1140.1 |
| 20260504000630 | 22 | 335 | 0.0 | 0.0 | 0.00 | 0.00 | 0.00 | 22 | 1140.1 |
| 20260504000128 | 22 | 335 | 0.0 | 0.0 | 0.00 | 0.00 | 0.00 | 21 | 1140.0 |
| 20260503235626 | 22 | 324 | 0.0 | 0.0 | 0.00 | 0.00 | 0.00 | 21 | 1140.0 |
| 20260503235122 | 22 | 7 | 0.0 | 1.6 | 0.00 | 0.00 | 0.00 | 22 | 1140.1 |
| 20260503234620 | 22 | 355 | 0.0 | 1.6 | 0.00 | 0.00 | 0.00 | 21 | 1140.0 |
| 20260503234118 | 22 | 316 | 0.0 | 0.0 | 0.00 | 0.00 | 0.00 | 21 | 1140.2 |
| 20260503233615 | 22 | 345 | 0.0 | 1.6 | 0.00 | 0.00 | 0.00 | 21 | 1140.0 |
| 20260503233110 | 22 | 350 | 0.0 | 4.8 | 0.00 | 0.00 | 0.00 | 21 | 1140.1 |
| 20260503232608 | 22 | 351 | 0.0 | 3.2 | 0.00 | 0.00 | 0.00 | 20 | 1140.0 |
| 20260503232105 | 22 | 336 | 0.0 | 0.0 | 0.00 | 0.00 | 0.00 | 21 | 1140.1 |
| 20260503231603 | 22 | 352 | 0.0 | 1.6 | 0.00 | 0.00 | 0.00 | 21 | 1140.1 |
| 20260503231059 | 22 | 315 | 0.0 | 1.6 | 0.00 | 0.00 | 0.00 | 20 | 1140.2 |
| 20260503230555 | 23 | 308 | 0.0 | 3.2 | 0.00 | 0.00 | 0.00 | 20 | 1140.4 |
| 20260503230053 | 22 | 321 | 0.0 | 3.2 | 0.00 | 0.00 | 0.00 | 20 | 1140.4 |
| 20260503225550 | 23 | 335 | 0.0 | 1.6 | 0.00 | 0.00 | 0.00 | 20 | 1140.5 |
| 20260503225045 | 22 | 335 | 0.0 | 4.8 | 0.00 | 0.00 | 0.00 | 21 | 1140.3 |
| 20260503224543 | 22 | 324 | 0.0 | 0.0 | 0.00 | 0.00 | 0.00 | 20 | 1140.5 |
| 20260503224040 | 22 | 8 | 0.0 | 1.6 | 0.00 | 0.00 | 0.00 | 21 | 1140.5 |
| 20260503223539 | 23 | 338 | 0.0 | 0.0 | 0.00 | 0.00 | 0.00 | 20 | 1140.6 |
| 20260503223033 | 23 | 300 | 0.0 | 3.2 | 0.00 | 0.00 | 0.00 | 20 | 1140.5 |
| 20260503222532 | 23 | 302 | 1.6 | 4.8 | 0.00 | 0.00 | 0.00 | 20 | 1140.5 |
| 20260503222030 | 23 | 262 | 0.0 | 0.0 | 0.00 | 0.00 | 0.00 | 20 | 1140.9 |
| 20260503221528 | 22 | 325 | 0.0 | 3.2 | 0.00 | 0.00 | 0.00 | 20 | 1140.6 |
| 20260503221025 | 22 | 300 | 1.6 | 3.2 | 0.00 | 0.00 | 0.00 | 20 | 1140.9 |
| 20260503220521 | 22 | 6 | 0.0 | 3.2 | 0.00 | 0.00 | 0.00 | 21 | 1141.0 |
| 20260503220018 | 23 | 321 | 0.0 | 1.6 | 0.00 | 0.00 | 0.00 | 20 | 1141.0 |
| 20260503215515 | 22 | 302 | 0.0 | 1.6 | 0.00 | 0.00 | 0.00 | 21 | 1141.1 |
| 20260503215012 | 22 | 290 | 0.0 | 3.2 | 0.00 | 0.00 | 0.00 | 21 | 1141.0 |
| 20260503214510 | 22 | 284 | 0.0 | 0.0 | 0.00 | 0.00 | 0.00 | 22 | 1141.3 |
| 20260503214007 | 22 | 301 | 0.0 | 0.0 | 0.00 | 0.00 | 0.00 | 21 | 1141.3 |
| 20260503213505 | 22 | 332 | 0.0 | 3.2 | 0.00 | 0.00 | 0.00 | 21 | 1141.5 |
| 20260503213001 | 22 | 356 | 0.0 | 0.0 | 0.00 | 0.00 | 0.00 | 22 | 1141.2 |
| 20260503212459 | 22 | 307 | 0.0 | 0.0 | 0.00 | 0.00 | 0.00 | 21 | 1141.2 |
| 20260503211956 | 21 | 286 | 0.0 | 1.6 | 0.00 | 0.00 | 0.00 | 21 | 1141.4 |
| 20260503211453 | 22 | 352 | 1.6 | 3.2 | 0.00 | 0.00 | 0.00 | 21 | 1141.6 |
| 20260503210949 | 22 | 352 | 0.0 | 1.6 | 0.00 | 0.00 | 0.00 | 21 | 1141.6 |
| 20260503210445 | 22 | 320 | 1.6 | 1.6 | 0.00 | 0.00 | 0.00 | 21 | 1141.6 |
| 20260503205940 | 22 | 318 | 0.0 | 0.0 | 0.00 | 0.00 | 0.00 | 22 | 1142.1 |
| 20260503205437 | 22 | 324 | 0.0 | 1.6 | 0.00 | 0.00 | 0.00 | 21 | 1142.2 |
| 20260503204933 | 22 | 340 | 0.0 | 1.6 | 0.00 | 0.00 | 0.00 | 22 | 1142.0 |
| 20260503204431 | 22 | 328 | 0.0 | 1.6 | 0.00 | 0.00 | 0.00 | 22 | 1142.0 |
| 20260503203928 | 22 | 316 | 1.6 | 3.2 | 0.00 | 0.00 | 0.00 | 22 | 1142.1 |
| 20260503203425 | 22 | 301 | 0.0 | 3.2 | 0.00 | 0.00 | 0.00 | 21 | 1142.2 |
| 20260503202922 | 21 | 242 | 0.0 | 0.0 | 0.00 | 0.00 | 0.00 | 23 | 1142.0 |
| 20260503202420 | 21 | 302 | 1.6 | 4.8 | 0.00 | 0.00 | 0.00 | 23 | 1142.2 |
| 20260503201918 | 21 | 303 | 1.6 | 3.2 | 0.00 | 0.00 | 0.00 | 20 | 1142.2 |
| 20260503201415 | 21 | 0 | 0.0 | 1.6 | 0.00 | 0.00 | 0.00 | 23 | 1142.5 |
| 20260503200913 | 21 | 356 | 0.0 | 1.6 | 0.00 | 0.00 | 0.00 | 22 | 1142.5 |
| 20260503200409 | 21 | 339 | 1.6 | 4.8 | 0.00 | 0.00 | 0.00 | 22 | 1142.6 |
| 20260503195906 | 21 | 3 | 0.0 | 1.6 | 0.00 | 0.00 | 0.00 | 22 | 1142.5 |
| 20260503195403 | 21 | 340 | 0.0 | 1.6 | 0.00 | 0.00 | 0.00 | 23 | 1143.1 |
| 20260503194859 | 21 | 353 | 0.0 | 1.6 | 0.00 | 0.00 | 0.00 | 23 | 1143.0 |
| 20260503194356 | 21 | 296 | 0.0 | 0.0 | 0.00 | 0.00 | 0.00 | 24 | 1143.0 |
| 20260503193852 | 22 | 310 | 0.0 | 4.8 | 0.00 | 0.00 | 0.00 | 22 | 1142.8 |
| 20260503193347 | 20 | 322 | 0.0 | 0.0 | 0.00 | 0.00 | 0.00 | 24 | 1142.8 |
| 20260503192843 | 20 | 308 | 0.0 | 3.2 | 0.00 | 0.00 | 0.00 | 24 | 1143.2 |
| 20260503192339 | 21 | 286 | 0.0 | 3.2 | 0.00 | 0.00 | 0.00 | 24 | 1143.3 |
| 20260503191836 | 20 | 287 | 0.0 | 0.0 | 0.00 | 0.00 | 0.00 | 24 | 1143.3 |
| 20260503191333 | 21 | 312 | 0.0 | 0.0 | 0.00 | 0.00 | 0.00 | 23 | 1143.4 |
| 20260503190829 | 21 | 335 | 0.0 | 3.2 | 0.00 | 0.00 | 0.00 | 23 | 1143.4 |
| 20260503190327 | 21 | 329 | 0.0 | 4.8 | 0.00 | 0.00 | 0.00 | 22 | 1143.6 |
| 20260503185824 | 21 | 289 | 0.0 | 4.8 | 0.00 | 0.00 | 0.00 | 22 | 1143.6 |
| 20260503185319 | 20 | 292 | 1.6 | 3.2 | 0.00 | 0.00 | 0.00 | 22 | 1143.6 |
| 20260503184814 | 21 | 291 | 0.0 | 4.8 | 0.00 | 0.00 | 0.00 | 22 | 1143.6 |
| 20260503184310 | 21 | 302 | 0.0 | 1.6 | 0.00 | 0.00 | 0.00 | 22 | 1143.4 |
| 20260503183806 | 20 | 307 | 0.0 | 0.0 | 0.00 | 0.00 | 0.00 | 23 | 1143.5 |
| 20260503183304 | 20 | 297 | 0.0 | 3.2 | 0.00 | 0.00 | 0.00 | 24 | 1143.5 |
| 20260503182801 | 21 | 299 | 0.0 | 0.0 | 0.00 | 0.00 | 0.00 | 23 | 1143.8 |
| 20260503182300 | 21 | 354 | 0.0 | 0.0 | 0.00 | 0.00 | 0.00 | 24 | 1143.7 |
| 20260503181756 | 20 | 286 | 0.0 | 1.6 | 0.00 | 0.00 | 0.00 | 24 | 1143.7 |
| 20260503181254 | 20 | 315 | 0.0 | 0.0 | 0.00 | 0.00 | 0.00 | 24 | 1144.2 |
| 20260503180750 | 20 | 338 | 0.0 | 0.0 | 0.00 | 0.00 | 0.00 | 24 | 1144.2 |
| 20260503180248 | 20 | 319 | 1.6 | 3.2 | 0.00 | 0.00 | 0.00 | 24 | 1144.2 |
| 20260503175744 | 20 | 342 | 0.0 | 0.0 | 0.00 | 0.00 | 0.00 | 24 | 1144.2 |
| 20260503175243 | 20 | 271 | 0.0 | 0.0 | 0.00 | 0.00 | 0.00 | 24 | 1144.2 |
| 20260503174738 | 20 | 269 | 0.0 | 3.2 | 0.00 | 0.00 | 0.00 | 25 | 1144.4 |
| 20260503174236 | 20 | 357 | 0.0 | 0.0 | 0.00 | 0.00 | 0.00 | 25 | 1144.3 |
| 20260503173730 | 20 | 349 | 0.0 | 1.6 | 0.00 | 0.00 | 0.00 | 24 | 1144.5 |
| 20260503173227 | 20 | 279 | 0.0 | 0.0 | 0.00 | 0.00 | 0.00 | 24 | 1144.6 |
| 20260503172724 | 20 | 357 | 0.0 | 1.6 | 0.00 | 0.00 | 0.00 | 24 | 1144.5 |
| 20260503172221 | 20 | 306 | 0.0 | 3.2 | 0.00 | 0.00 | 0.00 | 24 | 1144.7 |
| 20260503171717 | 20 | 330 | 0.0 | 3.2 | 0.00 | 0.00 | 0.00 | 25 | 1144.4 |
| 20260503171215 | 20 | 309 | 0.0 | 1.6 | 0.00 | 0.00 | 0.00 | 24 | 1144.6 |
| 20260503170712 | 20 | 310 | 0.0 | 0.0 | 0.00 | 0.00 | 0.00 | 25 | 1144.6 |
| 20260503170209 | 20 | 294 | 1.6 | 3.2 | 0.00 | 0.00 | 0.00 | 25 | 1144.6 |
| 20260503160130 | 16 | 259 | 0.0 | 0.0 | 0.00 | 0.00 | 0.00 | 45 | 1144.6 |
| 20260503150600 | 13 | 279 | 0.0 | 0.0 | 0.00 | 0.00 | 0.00 | 50 | 1145.1 |